sensor_id;sensor_type;location;lat;lon;timestamp;P1;durP1;ratioP1;P2;durP2;ratioP2
20290;SDS011;10304;51.074;13.754;2024-02-26T00:01:50;11.75;;;9.13;;
20290;SDS011;10304;51.074;13.754;2024-02-26T00:04:17;13.60;;;9.00;;
20290;SDS011;10304;51.074;13.754;2024-02-26T00:06:44;14.38;;;9.05;;
20290;SDS011;10304;51.074;13.754;2024-02-26T00:09:11;12.25;;;9.15;;
20290;SDS011;10304;51.074;13.754;2024-02-26T00:11:38;13.10;;;10.18;;
20290;SDS011;10304;51.074;13.754;2024-02-26T00:14:05;13.57;;;9.63;;
20290;SDS011;10304;51.074;13.754;2024-02-26T00:16:31;11.43;;;8.98;;
20290;SDS011;10304;51.074;13.754;2024-02-26T00:18:58;14.25;;;9.13;;
20290;SDS011;10304;51.074;13.754;2024-02-26T00:21:25;14.13;;;9.65;;
20290;SDS011;10304;51.074;13.754;2024-02-26T00:23:55;11.95;;;9.60;;
20290;SDS011;10304;51.074;13.754;2024-02-26T00:26:22;14.98;;;10.50;;
20290;SDS011;10304;51.074;13.754;2024-02-26T00:28:48;14.50;;;10.73;;
20290;SDS011;10304;51.074;13.754;2024-02-26T00:31:15;17.90;;;11.38;;
20290;SDS011;10304;51.074;13.754;2024-02-26T00:33:42;12.55;;;9.48;;
20290;SDS011;10304;51.074;13.754;2024-02-26T00:36:09;11.23;;;9.20;;
20290;SDS011;10304;51.074;13.754;2024-02-26T00:38:36;12.15;;;9.40;;
20290;SDS011;10304;51.074;13.754;2024-02-26T00:41:03;16.63;;;11.23;;
20290;SDS011;10304;51.074;13.754;2024-02-26T00:43:30;14.18;;;10.82;;
20290;SDS011;10304;51.074;13.754;2024-02-26T00:45:56;14.43;;;10.77;;
20290;SDS011;10304;51.074;13.754;2024-02-26T00:48:23;17.67;;;12.82;;
20290;SDS011;10304;51.074;13.754;2024-02-26T00:50:52;16.45;;;11.95;;
20290;SDS011;10304;51.074;13.754;2024-02-26T00:53:18;14.77;;;11.15;;
20290;SDS011;10304;51.074;13.754;2024-02-26T00:55:45;14.25;;;10.75;;
20290;SDS011;10304;51.074;13.754;2024-02-26T00:58:12;14.18;;;10.55;;
20290;SDS011;10304;51.074;13.754;2024-02-26T01:00:39;12.13;;;9.65;;
20290;SDS011;10304;51.074;13.754;2024-02-26T01:03:06;13.95;;;10.75;;
20290;SDS011;10304;51.074;13.754;2024-02-26T01:05:33;18.88;;;10.25;;
20290;SDS011;10304;51.074;13.754;2024-02-26T01:08:00;12.88;;;10.50;;
20290;SDS011;10304;51.074;13.754;2024-02-26T01:10:27;12.60;;;9.98;;
20290;SDS011;10304;51.074;13.754;2024-02-26T01:12:53;12.02;;;9.27;;
20290;SDS011;10304;51.074;13.754;2024-02-26T01:15:20;13.30;;;9.98;;
20290;SDS011;10304;51.074;13.754;2024-02-26T01:17:50;14.35;;;10.25;;
20290;SDS011;10304;51.074;13.754;2024-02-26T01:20:17;13.23;;;10.25;;
20290;SDS011;10304;51.074;13.754;2024-02-26T01:22:44;13.57;;;10.27;;
20290;SDS011;10304;51.074;13.754;2024-02-26T01:25:11;15.10;;;10.43;;
20290;SDS011;10304;51.074;13.754;2024-02-26T01:27:39;15.48;;;11.07;;
20290;SDS011;10304;51.074;13.754;2024-02-26T01:30:08;15.00;;;10.90;;
20290;SDS011;10304;51.074;13.754;2024-02-26T01:32:35;16.67;;;13.00;;
20290;SDS011;10304;51.074;13.754;2024-02-26T01:35:02;18.67;;;13.00;;
20290;SDS011;10304;51.074;13.754;2024-02-26T01:37:30;16.80;;;12.95;;
20290;SDS011;10304;51.074;13.754;2024-02-26T01:39:56;16.70;;;11.88;;
20290;SDS011;10304;51.074;13.754;2024-02-26T01:42:23;14.48;;;10.90;;
20290;SDS011;10304;51.074;13.754;2024-02-26T01:44:50;21.73;;;12.18;;
20290;SDS011;10304;51.074;13.754;2024-02-26T01:47:17;18.30;;;12.73;;
20290;SDS011;10304;51.074;13.754;2024-02-26T01:49:43;18.20;;;11.27;;
20290;SDS011;10304;51.074;13.754;2024-02-26T01:52:10;19.33;;;11.30;;
20290;SDS011;10304;51.074;13.754;2024-02-26T01:54:37;17.13;;;11.43;;
20290;SDS011;10304;51.074;13.754;2024-02-26T01:57:05;31.48;;;19.63;;
20290;SDS011;10304;51.074;13.754;2024-02-26T01:59:34;44.85;;;26.15;;
20290;SDS011;10304;51.074;13.754;2024-02-26T02:02:02;32.55;;;20.63;;
20290;SDS011;10304;51.074;13.754;2024-02-26T02:04:31;28.50;;;17.85;;
20290;SDS011;10304;51.074;13.754;2024-02-26T02:06:58;25.60;;;16.00;;
20290;SDS011;10304;51.074;13.754;2024-02-26T02:09:27;24.38;;;15.05;;
20290;SDS011;10304;51.074;13.754;2024-02-26T02:11:54;20.42;;;14.18;;
20290;SDS011;10304;51.074;13.754;2024-02-26T02:14:22;21.98;;;14.00;;
20290;SDS011;10304;51.074;13.754;2024-02-26T02:16:49;17.00;;;12.73;;
20290;SDS011;10304;51.074;13.754;2024-02-26T02:19:15;17.67;;;12.95;;
20290;SDS011;10304;51.074;13.754;2024-02-26T02:21:42;21.73;;;13.55;;
20290;SDS011;10304;51.074;13.754;2024-02-26T02:24:09;15.73;;;12.40;;
20290;SDS011;10304;51.074;13.754;2024-02-26T02:26:36;18.33;;;12.35;;
20290;SDS011;10304;51.074;13.754;2024-02-26T02:29:02;20.17;;;12.25;;
20290;SDS011;10304;51.074;13.754;2024-02-26T02:31:30;17.48;;;12.95;;
20290;SDS011;10304;51.074;13.754;2024-02-26T02:33:56;20.27;;;13.52;;
20290;SDS011;10304;51.074;13.754;2024-02-26T02:36:24;16.17;;;12.50;;
20290;SDS011;10304;51.074;13.754;2024-02-26T02:38:51;19.02;;;13.00;;
20290;SDS011;10304;51.074;13.754;2024-02-26T02:41:18;16.63;;;11.88;;
20290;SDS011;10304;51.074;13.754;2024-02-26T02:43:45;15.70;;;11.40;;
20290;SDS011;10304;51.074;13.754;2024-02-26T02:46:11;15.38;;;11.65;;
20290;SDS011;10304;51.074;13.754;2024-02-26T02:48:38;16.45;;;12.52;;
20290;SDS011;10304;51.074;13.754;2024-02-26T02:51:06;17.08;;;11.68;;
20290;SDS011;10304;51.074;13.754;2024-02-26T02:53:32;14.23;;;10.88;;
20290;SDS011;10304;51.074;13.754;2024-02-26T02:55:59;16.25;;;11.27;;
20290;SDS011;10304;51.074;13.754;2024-02-26T02:58:26;15.32;;;11.10;;
20290;SDS011;10304;51.074;13.754;2024-02-26T03:00:52;16.38;;;11.32;;
20290;SDS011;10304;51.074;13.754;2024-02-26T03:03:21;14.45;;;10.85;;
20290;SDS011;10304;51.074;13.754;2024-02-26T03:05:50;14.75;;;11.20;;
20290;SDS011;10304;51.074;13.754;2024-02-26T03:08:17;17.35;;;11.23;;
20290;SDS011;10304;51.074;13.754;2024-02-26T03:10:45;16.65;;;11.52;;
20290;SDS011;10304;51.074;13.754;2024-02-26T03:13:12;15.00;;;11.18;;
20290;SDS011;10304;51.074;13.754;2024-02-26T03:15:39;18.33;;;12.40;;
20290;SDS011;10304;51.074;13.754;2024-02-26T03:18:06;15.35;;;11.57;;
20290;SDS011;10304;51.074;13.754;2024-02-26T03:20:34;15.95;;;11.98;;
20290;SDS011;10304;51.074;13.754;2024-02-26T03:23:00;17.30;;;12.00;;
20290;SDS011;10304;51.074;13.754;2024-02-26T03:25:27;15.63;;;11.45;;
20290;SDS011;10304;51.074;13.754;2024-02-26T03:27:54;18.77;;;11.75;;
20290;SDS011;10304;51.074;13.754;2024-02-26T03:30:20;15.75;;;10.70;;
20290;SDS011;10304;51.074;13.754;2024-02-26T03:32:47;15.98;;;11.65;;
20290;SDS011;10304;51.074;13.754;2024-02-26T03:35:14;15.48;;;11.60;;
20290;SDS011;10304;51.074;13.754;2024-02-26T03:37:41;18.05;;;12.35;;
20290;SDS011;10304;51.074;13.754;2024-02-26T03:40:08;15.80;;;11.93;;
20290;SDS011;10304;51.074;13.754;2024-02-26T03:42:35;19.25;;;12.00;;
20290;SDS011;10304;51.074;13.754;2024-02-26T03:45:02;17.75;;;12.02;;
20290;SDS011;10304;51.074;13.754;2024-02-26T03:47:29;16.85;;;11.65;;
20290;SDS011;10304;51.074;13.754;2024-02-26T03:49:55;17.00;;;11.90;;
20290;SDS011;10304;51.074;13.754;2024-02-26T03:52:22;19.27;;;12.35;;
20290;SDS011;10304;51.074;13.754;2024-02-26T03:54:49;18.52;;;12.43;;
20290;SDS011;10304;51.074;13.754;2024-02-26T03:57:16;15.93;;;11.45;;
20290;SDS011;10304;51.074;13.754;2024-02-26T03:59:43;16.63;;;11.52;;
20290;SDS011;10304;51.074;13.754;2024-02-26T04:02:09;17.10;;;11.90;;
20290;SDS011;10304;51.074;13.754;2024-02-26T04:04:36;15.77;;;11.05;;
20290;SDS011;10304;51.074;13.754;2024-02-26T04:07:03;18.05;;;11.18;;
20290;SDS011;10304;51.074;13.754;2024-02-26T04:09:31;18.27;;;11.52;;
20290;SDS011;10304;51.074;13.754;2024-02-26T04:11:58;14.82;;;11.05;;
20290;SDS011;10304;51.074;13.754;2024-02-26T04:14:24;15.90;;;11.48;;
20290;SDS011;10304;51.074;13.754;2024-02-26T04:16:52;18.85;;;11.95;;
20290;SDS011;10304;51.074;13.754;2024-02-26T04:19:20;17.08;;;11.63;;
20290;SDS011;10304;51.074;13.754;2024-02-26T04:21:47;16.10;;;11.88;;
20290;SDS011;10304;51.074;13.754;2024-02-26T04:24:14;18.00;;;12.05;;
20290;SDS011;10304;51.074;13.754;2024-02-26T04:26:41;17.10;;;11.88;;
20290;SDS011;10304;51.074;13.754;2024-02-26T04:29:07;14.93;;;11.23;;
20290;SDS011;10304;51.074;13.754;2024-02-26T04:31:34;17.38;;;12.45;;
20290;SDS011;10304;51.074;13.754;2024-02-26T04:34:03;19.08;;;12.15;;
20290;SDS011;10304;51.074;13.754;2024-02-26T04:36:30;17.40;;;11.85;;
20290;SDS011;10304;51.074;13.754;2024-02-26T04:38:57;16.92;;;11.52;;
20290;SDS011;10304;51.074;13.754;2024-02-26T04:41:24;17.48;;;12.35;;
20290;SDS011;10304;51.074;13.754;2024-02-26T04:43:51;18.67;;;12.38;;
20290;SDS011;10304;51.074;13.754;2024-02-26T04:46:17;40.22;;;26.13;;
20290;SDS011;10304;51.074;13.754;2024-02-26T04:48:44;63.00;;;37.03;;
20290;SDS011;10304;51.074;13.754;2024-02-26T04:51:13;69.07;;;42.08;;
20290;SDS011;10304;51.074;13.754;2024-02-26T04:53:40;46.65;;;28.33;;
20290;SDS011;10304;51.074;13.754;2024-02-26T04:56:06;26.90;;;18.05;;
20290;SDS011;10304;51.074;13.754;2024-02-26T04:58:33;20.80;;;13.38;;
20290;SDS011;10304;51.074;13.754;2024-02-26T05:01:00;17.83;;;12.30;;
20290;SDS011;10304;51.074;13.754;2024-02-26T05:03:27;18.88;;;12.00;;
20290;SDS011;10304;51.074;13.754;2024-02-26T05:05:54;17.73;;;12.48;;
20290;SDS011;10304;51.074;13.754;2024-02-26T05:08:21;21.30;;;14.07;;
20290;SDS011;10304;51.074;13.754;2024-02-26T05:10:48;16.40;;;12.02;;
20290;SDS011;10304;51.074;13.754;2024-02-26T05:13:14;16.83;;;11.52;;
20290;SDS011;10304;51.074;13.754;2024-02-26T05:15:44;19.52;;;13.43;;
20290;SDS011;10304;51.074;13.754;2024-02-26T05:18:13;18.02;;;13.30;;
20290;SDS011;10304;51.074;13.754;2024-02-26T05:20:40;20.08;;;13.98;;
20290;SDS011;10304;51.074;13.754;2024-02-26T05:23:06;18.30;;;13.30;;
20290;SDS011;10304;51.074;13.754;2024-02-26T05:25:34;21.55;;;13.38;;
20290;SDS011;10304;51.074;13.754;2024-02-26T05:28:01;28.30;;;18.63;;
20290;SDS011;10304;51.074;13.754;2024-02-26T05:30:27;27.17;;;17.77;;
20290;SDS011;10304;51.074;13.754;2024-02-26T05:32:55;61.05;;;32.95;;
20290;SDS011;10304;51.074;13.754;2024-02-26T05:35:22;29.55;;;19.08;;
20290;SDS011;10304;51.074;13.754;2024-02-26T05:37:49;22.42;;;15.32;;
20290;SDS011;10304;51.074;13.754;2024-02-26T05:40:16;25.55;;;16.90;;
20290;SDS011;10304;51.074;13.754;2024-02-26T05:42:43;125.53;;;67.00;;
20290;SDS011;10304;51.074;13.754;2024-02-26T05:45:13;39.50;;;24.25;;
20290;SDS011;10304;51.074;13.754;2024-02-26T05:47:40;28.42;;;18.42;;
20290;SDS011;10304;51.074;13.754;2024-02-26T05:50:09;30.27;;;18.38;;
20290;SDS011;10304;51.074;13.754;2024-02-26T05:52:37;92.05;;;42.00;;
20290;SDS011;10304;51.074;13.754;2024-02-26T05:55:07;29.98;;;17.10;;
20290;SDS011;10304;51.074;13.754;2024-02-26T05:57:34;22.80;;;14.35;;
20290;SDS011;10304;51.074;13.754;2024-02-26T06:00:02;25.27;;;14.23;;
20290;SDS011;10304;51.074;13.754;2024-02-26T06:02:31;21.08;;;14.52;;
20290;SDS011;10304;51.074;13.754;2024-02-26T06:04:58;24.00;;;13.95;;
20290;SDS011;10304;51.074;13.754;2024-02-26T06:07:25;23.67;;;13.85;;
20290;SDS011;10304;51.074;13.754;2024-02-26T06:09:52;23.35;;;13.65;;
20290;SDS011;10304;51.074;13.754;2024-02-26T06:12:19;35.60;;;22.30;;
20290;SDS011;10304;51.074;13.754;2024-02-26T06:14:46;33.35;;;18.58;;
20290;SDS011;10304;51.074;13.754;2024-02-26T06:17:13;30.30;;;17.15;;
20290;SDS011;10304;51.074;13.754;2024-02-26T06:19:40;24.02;;;15.43;;
20290;SDS011;10304;51.074;13.754;2024-02-26T06:22:06;25.25;;;14.18;;
20290;SDS011;10304;51.074;13.754;2024-02-26T06:24:33;21.42;;;13.88;;
20290;SDS011;10304;51.074;13.754;2024-02-26T06:27:00;21.70;;;13.57;;
20290;SDS011;10304;51.074;13.754;2024-02-26T06:29:27;22.55;;;14.02;;
20290;SDS011;10304;51.074;13.754;2024-02-26T06:31:54;25.17;;;15.10;;
20290;SDS011;10304;51.074;13.754;2024-02-26T06:34:21;579.38;;;280.85;;
20290;SDS011;10304;51.074;13.754;2024-02-26T06:36:48;992.65;;;503.05;;
20290;SDS011;10304;51.074;13.754;2024-02-26T06:39:15;695.92;;;323.85;;
20290;SDS011;10304;51.074;13.754;2024-02-26T06:41:42;563.42;;;234.10;;
20290;SDS011;10304;51.074;13.754;2024-02-26T06:44:09;1190.53;;;515.72;;
20290;SDS011;10304;51.074;13.754;2024-02-26T06:46:36;218.05;;;84.20;;
20290;SDS011;10304;51.074;13.754;2024-02-26T06:49:02;69.72;;;31.80;;
20290;SDS011;10304;51.074;13.754;2024-02-26T06:51:29;25.55;;;14.40;;
20290;SDS011;10304;51.074;13.754;2024-02-26T06:53:56;21.73;;;13.32;;
20290;SDS011;10304;51.074;13.754;2024-02-26T06:56:23;19.75;;;12.70;;
20290;SDS011;10304;51.074;13.754;2024-02-26T06:58:50;20.73;;;12.35;;
20290;SDS011;10304;51.074;13.754;2024-02-26T07:01:17;15.23;;;10.40;;
20290;SDS011;10304;51.074;13.754;2024-02-26T07:03:44;16.55;;;11.07;;
20290;SDS011;10304;51.074;13.754;2024-02-26T07:06:12;18.42;;;11.35;;
20290;SDS011;10304;51.074;13.754;2024-02-26T07:08:40;15.38;;;11.35;;
20290;SDS011;10304;51.074;13.754;2024-02-26T07:11:07;16.88;;;11.43;;
20290;SDS011;10304;51.074;13.754;2024-02-26T07:13:35;20.67;;;13.00;;
20290;SDS011;10304;51.074;13.754;2024-02-26T07:16:02;17.55;;;11.90;;
20290;SDS011;10304;51.074;13.754;2024-02-26T07:18:29;24.77;;;12.82;;
20290;SDS011;10304;51.074;13.754;2024-02-26T07:20:56;18.42;;;12.80;;
20290;SDS011;10304;51.074;13.754;2024-02-26T07:23:23;25.02;;;13.57;;
20290;SDS011;10304;51.074;13.754;2024-02-26T07:25:50;20.98;;;12.60;;
20290;SDS011;10304;51.074;13.754;2024-02-26T07:28:19;19.35;;;12.60;;
20290;SDS011;10304;51.074;13.754;2024-02-26T07:30:46;17.67;;;11.35;;
20290;SDS011;10304;51.074;13.754;2024-02-26T07:33:13;19.20;;;11.18;;
20290;SDS011;10304;51.074;13.754;2024-02-26T07:35:40;21.73;;;11.27;;
20290;SDS011;10304;51.074;13.754;2024-02-26T07:38:07;16.38;;;12.00;;
20290;SDS011;10304;51.074;13.754;2024-02-26T07:40:48;18.20;;;12.15;;
20290;SDS011;10304;51.074;13.754;2024-02-26T07:43:27;18.08;;;12.55;;
20290;SDS011;10304;51.074;13.754;2024-02-26T07:45:54;17.63;;;11.20;;
20290;SDS011;10304;51.074;13.754;2024-02-26T07:48:22;18.35;;;11.98;;
20290;SDS011;10304;51.074;13.754;2024-02-26T07:50:49;36.03;;;13.00;;
20290;SDS011;10304;51.074;13.754;2024-02-26T07:53:16;19.10;;;12.27;;
20290;SDS011;10304;51.074;13.754;2024-02-26T07:55:43;415.83;;;203.98;;
20290;SDS011;10304;51.074;13.754;2024-02-26T07:58:09;1227.55;;;666.60;;
20290;SDS011;10304;51.074;13.754;2024-02-26T08:00:36;593.95;;;304.73;;
20290;SDS011;10304;51.074;13.754;2024-02-26T08:03:03;387.80;;;170.55;;
20290;SDS011;10304;51.074;13.754;2024-02-26T08:05:30;174.02;;;82.63;;
20290;SDS011;10304;51.074;13.754;2024-02-26T08:07:57;79.60;;;36.40;;
20290;SDS011;10304;51.074;13.754;2024-02-26T08:10:24;48.13;;;24.92;;
20290;SDS011;10304;51.074;13.754;2024-02-26T08:12:54;21.30;;;14.75;;
20290;SDS011;10304;51.074;13.754;2024-02-26T08:15:21;20.35;;;13.07;;
20290;SDS011;10304;51.074;13.754;2024-02-26T08:17:47;16.15;;;12.02;;
20290;SDS011;10304;51.074;13.754;2024-02-26T08:20:15;17.55;;;12.57;;
20290;SDS011;10304;51.074;13.754;2024-02-26T08:22:42;16.13;;;11.13;;
20290;SDS011;10304;51.074;13.754;2024-02-26T08:25:09;17.83;;;10.32;;
20290;SDS011;10304;51.074;13.754;2024-02-26T08:27:37;13.70;;;10.20;;
20290;SDS011;10304;51.074;13.754;2024-02-26T08:30:04;18.17;;;10.48;;
20290;SDS011;10304;51.074;13.754;2024-02-26T08:32:31;14.23;;;10.07;;
20290;SDS011;10304;51.074;13.754;2024-02-26T08:34:58;15.13;;;10.65;;
20290;SDS011;10304;51.074;13.754;2024-02-26T08:37:25;13.43;;;9.18;;
20290;SDS011;10304;51.074;13.754;2024-02-26T08:39:52;16.85;;;10.05;;
20290;SDS011;10304;51.074;13.754;2024-02-26T08:42:19;15.73;;;9.77;;
20290;SDS011;10304;51.074;13.754;2024-02-26T08:44:46;13.18;;;9.10;;
20290;SDS011;10304;51.074;13.754;2024-02-26T08:47:12;14.90;;;9.20;;
20290;SDS011;10304;51.074;13.754;2024-02-26T08:49:42;14.80;;;9.82;;
20290;SDS011;10304;51.074;13.754;2024-02-26T08:52:11;16.15;;;9.68;;
20290;SDS011;10304;51.074;13.754;2024-02-26T08:54:37;12.57;;;8.93;;
20290;SDS011;10304;51.074;13.754;2024-02-26T08:57:04;13.32;;;9.32;;
20290;SDS011;10304;51.074;13.754;2024-02-26T08:59:32;14.05;;;9.23;;
20290;SDS011;10304;51.074;13.754;2024-02-26T09:01:58;13.23;;;9.18;;
20290;SDS011;10304;51.074;13.754;2024-02-26T09:04:25;13.02;;;9.20;;
20290;SDS011;10304;51.074;13.754;2024-02-26T09:06:53;13.32;;;9.48;;
20290;SDS011;10304;51.074;13.754;2024-02-26T09:09:20;14.93;;;9.07;;
20290;SDS011;10304;51.074;13.754;2024-02-26T09:11:48;12.45;;;8.57;;
20290;SDS011;10304;51.074;13.754;2024-02-26T09:14:18;13.68;;;9.25;;
20290;SDS011;10304;51.074;13.754;2024-02-26T09:16:45;14.40;;;9.15;;
20290;SDS011;10304;51.074;13.754;2024-02-26T09:19:12;13.55;;;9.30;;
20290;SDS011;10304;51.074;13.754;2024-02-26T09:21:42;11.43;;;8.23;;
20290;SDS011;10304;51.074;13.754;2024-02-26T09:24:12;13.32;;;8.73;;
20290;SDS011;10304;51.074;13.754;2024-02-26T09:26:39;12.43;;;9.05;;
20290;SDS011;10304;51.074;13.754;2024-02-26T09:29:06;10.90;;;8.50;;
20290;SDS011;10304;51.074;13.754;2024-02-26T09:31:34;13.43;;;9.57;;
20290;SDS011;10304;51.074;13.754;2024-02-26T09:34:01;14.20;;;8.98;;
20290;SDS011;10304;51.074;13.754;2024-02-26T09:36:28;14.13;;;9.07;;
20290;SDS011;10304;51.074;13.754;2024-02-26T09:38:56;10.95;;;8.80;;
20290;SDS011;10304;51.074;13.754;2024-02-26T09:41:30;13.98;;;9.55;;
20290;SDS011;10304;51.074;13.754;2024-02-26T09:43:58;12.32;;;8.88;;
20290;SDS011;10304;51.074;13.754;2024-02-26T09:46:26;12.02;;;8.75;;
20290;SDS011;10304;51.074;13.754;2024-02-26T09:48:53;14.38;;;9.23;;
20290;SDS011;10304;51.074;13.754;2024-02-26T09:51:20;13.48;;;9.43;;
20290;SDS011;10304;51.074;13.754;2024-02-26T09:53:52;10.55;;;8.75;;
20290;SDS011;10304;51.074;13.754;2024-02-26T09:56:19;13.55;;;9.07;;
20290;SDS011;10304;51.074;13.754;2024-02-26T09:58:47;12.98;;;9.23;;
20290;SDS011;10304;51.074;13.754;2024-02-26T10:01:20;12.98;;;8.98;;
20290;SDS011;10304;51.074;13.754;2024-02-26T10:03:56;12.95;;;9.20;;
20290;SDS011;10304;51.074;13.754;2024-02-26T10:06:26;10.73;;;8.57;;
20290;SDS011;10304;51.074;13.754;2024-02-26T10:08:54;11.05;;;8.80;;
20290;SDS011;10304;51.074;13.754;2024-02-26T10:11:25;10.23;;;8.23;;
20290;SDS011;10304;51.074;13.754;2024-02-26T10:13:53;11.27;;;8.27;;
20290;SDS011;10304;51.074;13.754;2024-02-26T10:16:19;12.18;;;8.27;;
20290;SDS011;10304;51.074;13.754;2024-02-26T10:18:47;10.68;;;8.20;;
20290;SDS011;10304;51.074;13.754;2024-02-26T10:21:18;10.05;;;8.38;;
20290;SDS011;10304;51.074;13.754;2024-02-26T10:23:49;11.40;;;7.90;;
20290;SDS011;10304;51.074;13.754;2024-02-26T10:26:17;12.15;;;8.52;;
20290;SDS011;10304;51.074;13.754;2024-02-26T10:28:44;11.35;;;8.20;;
20290;SDS011;10304;51.074;13.754;2024-02-26T10:31:13;11.00;;;8.20;;
20290;SDS011;10304;51.074;13.754;2024-02-26T10:33:41;11.63;;;8.15;;
20290;SDS011;10304;51.074;13.754;2024-02-26T10:36:09;10.13;;;7.70;;
20290;SDS011;10304;51.074;13.754;2024-02-26T10:38:37;11.27;;;7.53;;
20290;SDS011;10304;51.074;13.754;2024-02-26T10:41:04;10.27;;;8.38;;
20290;SDS011;10304;51.074;13.754;2024-02-26T10:43:32;12.27;;;8.60;;
20290;SDS011;10304;51.074;13.754;2024-02-26T10:45:59;10.68;;;8.40;;
20290;SDS011;10304;51.074;13.754;2024-02-26T10:48:26;10.48;;;8.05;;
20290;SDS011;10304;51.074;13.754;2024-02-26T10:50:54;8.70;;;7.80;;
20290;SDS011;10304;51.074;13.754;2024-02-26T10:53:22;9.02;;;7.90;;
20290;SDS011;10304;51.074;13.754;2024-02-26T10:55:58;10.23;;;8.35;;
20290;SDS011;10304;51.074;13.754;2024-02-26T10:58:29;9.70;;;7.70;;
20290;SDS011;10304;51.074;13.754;2024-02-26T11:00:57;10.25;;;8.13;;
20290;SDS011;10304;51.074;13.754;2024-02-26T11:03:26;9.48;;;7.55;;
20290;SDS011;10304;51.074;13.754;2024-02-26T11:05:54;9.80;;;7.95;;
20290;SDS011;10304;51.074;13.754;2024-02-26T11:08:24;9.30;;;7.63;;
20290;SDS011;10304;51.074;13.754;2024-02-26T11:10:53;9.88;;;7.95;;
20290;SDS011;10304;51.074;13.754;2024-02-26T11:13:21;9.45;;;7.57;;
20290;SDS011;10304;51.074;13.754;2024-02-26T11:15:49;9.57;;;7.70;;
20290;SDS011;10304;51.074;13.754;2024-02-26T11:18:18;9.57;;;7.80;;
20290;SDS011;10304;51.074;13.754;2024-02-26T11:20:46;8.73;;;7.57;;
20290;SDS011;10304;51.074;13.754;2024-02-26T11:23:14;8.95;;;7.68;;
20290;SDS011;10304;51.074;13.754;2024-02-26T11:25:41;8.80;;;7.60;;
20290;SDS011;10304;51.074;13.754;2024-02-26T11:28:11;10.68;;;7.53;;
20290;SDS011;10304;51.074;13.754;2024-02-26T11:30:42;9.10;;;6.97;;
20290;SDS011;10304;51.074;13.754;2024-02-26T11:33:12;11.25;;;7.22;;
20290;SDS011;10304;51.074;13.754;2024-02-26T11:35:41;8.35;;;7.22;;
20290;SDS011;10304;51.074;13.754;2024-02-26T11:38:08;9.52;;;7.57;;
20290;SDS011;10304;51.074;13.754;2024-02-26T11:40:50;11.20;;;7.68;;
20290;SDS011;10304;51.074;13.754;2024-02-26T11:43:16;10.95;;;7.93;;
20290;SDS011;10304;51.074;13.754;2024-02-26T11:48:21;9.02;;;7.68;;
20290;SDS011;10304;51.074;13.754;2024-02-26T11:50:57;10.90;;;7.70;;
20290;SDS011;10304;51.074;13.754;2024-02-26T11:53:46;9.20;;;7.35;;
20290;SDS011;10304;51.074;13.754;2024-02-26T11:56:21;10.20;;;7.60;;
20290;SDS011;10304;51.074;13.754;2024-02-26T11:58:57;14.40;;;8.00;;
20290;SDS011;10304;51.074;13.754;2024-02-26T12:04:18;10.65;;;7.15;;
20290;SDS011;10304;51.074;13.754;2024-02-26T12:06:52;8.82;;;6.75;;
20290;SDS011;10304;51.074;13.754;2024-02-26T12:09:41;10.77;;;7.63;;
20290;SDS011;10304;51.074;13.754;2024-02-26T12:12:09;9.18;;;7.75;;
20290;SDS011;10304;51.074;13.754;2024-02-26T12:14:38;9.63;;;7.43;;
20290;SDS011;10304;51.074;13.754;2024-02-26T12:17:06;10.82;;;8.10;;
20290;SDS011;10304;51.074;13.754;2024-02-26T12:19:44;9.07;;;7.30;;
20290;SDS011;10304;51.074;13.754;2024-02-26T12:37:16;10.50;;;7.60;;
20290;SDS011;10304;51.074;13.754;2024-02-26T12:39:43;8.27;;;6.95;;
20290;SDS011;10304;51.074;13.754;2024-02-26T12:42:12;10.35;;;7.10;;
20290;SDS011;10304;51.074;13.754;2024-02-26T12:44:38;12.32;;;7.63;;
20290;SDS011;10304;51.074;13.754;2024-02-26T12:47:05;9.30;;;7.32;;
20290;SDS011;10304;51.074;13.754;2024-02-26T12:49:32;9.88;;;7.22;;
20290;SDS011;10304;51.074;13.754;2024-02-26T12:51:59;9.35;;;7.28;;
20290;SDS011;10304;51.074;13.754;2024-02-26T12:54:29;10.02;;;7.78;;
20290;SDS011;10304;51.074;13.754;2024-02-26T12:57:00;9.35;;;6.80;;
20290;SDS011;10304;51.074;13.754;2024-02-26T12:59:30;10.55;;;7.38;;
20290;SDS011;10304;51.074;13.754;2024-02-26T13:01:57;9.88;;;7.53;;
20290;SDS011;10304;51.074;13.754;2024-02-26T13:04:25;10.90;;;7.60;;
20290;SDS011;10304;51.074;13.754;2024-02-26T13:06:58;8.73;;;7.45;;
20290;SDS011;10304;51.074;13.754;2024-02-26T13:09:34;9.57;;;6.78;;
20290;SDS011;10304;51.074;13.754;2024-02-26T13:12:03;9.55;;;7.22;;
20290;SDS011;10304;51.074;13.754;2024-02-26T13:14:32;9.07;;;6.60;;
20290;SDS011;10304;51.074;13.754;2024-02-26T13:17:00;9.77;;;7.07;;
20290;SDS011;10304;51.074;13.754;2024-02-26T13:19:27;10.57;;;7.28;;
20290;SDS011;10304;51.074;13.754;2024-02-26T13:21:54;8.27;;;6.93;;
20290;SDS011;10304;51.074;13.754;2024-02-26T13:24:22;7.97;;;6.88;;
20290;SDS011;10304;51.074;13.754;2024-02-26T13:26:58;11.07;;;7.45;;
20290;SDS011;10304;51.074;13.754;2024-02-26T13:29:25;10.60;;;6.78;;
20290;SDS011;10304;51.074;13.754;2024-02-26T13:31:55;9.55;;;6.55;;
20290;SDS011;10304;51.074;13.754;2024-02-26T13:34:25;7.72;;;5.90;;
20290;SDS011;10304;51.074;13.754;2024-02-26T13:36:53;9.48;;;6.22;;
20290;SDS011;10304;51.074;13.754;2024-02-26T13:39:24;7.35;;;6.18;;
20290;SDS011;10304;51.074;13.754;2024-02-26T13:41:53;6.93;;;6.20;;
20290;SDS011;10304;51.074;13.754;2024-02-26T13:44:20;9.88;;;6.97;;
20290;SDS011;10304;51.074;13.754;2024-02-26T13:46:47;25.65;;;12.48;;
20290;SDS011;10304;51.074;13.754;2024-02-26T13:49:15;21.83;;;10.18;;
20290;SDS011;10304;51.074;13.754;2024-02-26T13:51:42;14.23;;;8.48;;
20290;SDS011;10304;51.074;13.754;2024-02-26T13:54:09;12.73;;;8.10;;
20290;SDS011;10304;51.074;13.754;2024-02-26T13:56:36;8.98;;;6.75;;
20290;SDS011;10304;51.074;13.754;2024-02-26T13:59:04;11.98;;;7.05;;
20290;SDS011;10304;51.074;13.754;2024-02-26T14:01:31;10.02;;;7.13;;
20290;SDS011;10304;51.074;13.754;2024-02-26T14:03:59;9.02;;;7.25;;
20290;SDS011;10304;51.074;13.754;2024-02-26T14:06:29;9.13;;;6.32;;
20290;SDS011;10304;51.074;13.754;2024-02-26T14:08:57;9.50;;;6.78;;
20290;SDS011;10304;51.074;13.754;2024-02-26T14:11:25;8.10;;;6.90;;
20290;SDS011;10304;51.074;13.754;2024-02-26T14:13:52;8.93;;;6.70;;
20290;SDS011;10304;51.074;13.754;2024-02-26T14:31:31;10.65;;;6.63;;
20290;SDS011;10304;51.074;13.754;2024-02-26T14:33:58;11.02;;;7.38;;
20290;SDS011;10304;51.074;13.754;2024-02-26T14:36:25;9.32;;;6.82;;
20290;SDS011;10304;51.074;13.754;2024-02-26T14:38:52;8.25;;;6.22;;
20290;SDS011;10304;51.074;13.754;2024-02-26T14:41:19;10.52;;;6.60;;
20290;SDS011;10304;51.074;13.754;2024-02-26T14:43:45;9.70;;;6.28;;
20290;SDS011;10304;51.074;13.754;2024-02-26T14:46:13;9.85;;;6.90;;
20290;SDS011;10304;51.074;13.754;2024-02-26T14:48:39;11.00;;;7.00;;
20290;SDS011;10304;51.074;13.754;2024-02-26T14:51:06;9.40;;;7.10;;
20290;SDS011;10304;51.074;13.754;2024-02-26T14:53:34;8.35;;;6.20;;
20290;SDS011;10304;51.074;13.754;2024-02-26T14:56:01;8.65;;;6.85;;